Time;durP1;ratioP1;P1;durP2;ratioP2;P2;SDS_P1;SDS_P2;PMS_P1;PMS_P2;Temp;Humidity;BMP_temperature;BMP_pressure;BME280_temperature;BME280_humidity;BME280_pressure;Samples;Min_cycle;Max_cycle;Signal;HPM_P1;HPM_P2
2021/07/27 00:01:30;;;;;;;;;;;;;;;15.78;76.00;101880.69;5112088;28;19938;-73
2021/07/27 00:03:57;;;;;;;;;;;;;;;15.58;76.58;101879.19;5112726;28;19950;-74
2021/07/27 00:06:24;;;;;;;;;;;;;;;15.45;77.18;101877.28;5112567;28;19924;-73
2021/07/27 00:08:52;;;;;;;;;;;;;;;15.44;77.33;101872.97;5112400;28;19924;-74
2021/07/27 00:11:18;;;;;;;;;;;;;;;15.45;76.94;101882.50;5115331;28;19931;-73
2021/07/27 00:13:45;;;;;;;;;;;;;;;15.56;76.71;101875.81;5115856;28;20306;-73
2021/07/27 00:16:11;;;;;;;;;;;;;;;15.49;77.04;101877.97;5116549;28;19924;-74
2021/07/27 00:18:38;;;;;;;;;;;;;;;15.47;77.00;101882.44;5116267;28;19924;-73
2021/07/27 00:21:05;;;;;;;;;;;;;;;15.28;77.59;101880.00;5115942;28;19931;-73
2021/07/27 00:23:32;;;;;;;;;;;;;;;15.41;77.00;101890.63;5115661;28;20393;-73
2021/07/27 00:26:00;;;;;;;;;;;;;;;15.21;77.78;101899.66;5115716;28;20382;-73
2021/07/27 00:28:27;;;;;;;;;;;;;;;15.16;77.86;101894.66;5115851;28;19923;-73
2021/07/27 00:30:53;;;;;;;;;;;;;;;15.19;77.89;101894.50;5115830;28;20293;-74
2021/07/27 00:33:20;;;;;;;;;;;;;;;14.95;78.76;101898.47;5115774;28;19924;-73
2021/07/27 00:35:47;;;;;;;;;;;;;;;14.90;79.10;101897.88;5115941;28;19924;-74
2021/07/27 00:38:18;;;;;;;;;;;;;;;15.09;78.18;101890.69;5115685;28;20409;-73
2021/07/27 00:40:45;;;;;;;;;;;;;;;15.14;77.61;101896.53;5115582;28;19931;-74
2021/07/27 00:43:14;;;;;;;;;;;;;;;15.30;77.46;101888.63;5115769;28;19923;-73
2021/07/27 00:45:41;;;;;;;;;;;;;;;15.09;78.10;101888.06;5115065;28;19924;-74
2021/07/27 00:48:07;;;;;;;;;;;;;;;15.00;78.69;101905.16;5115390;28;19923;-73
2021/07/27 00:50:34;;;;;;;;;;;;;;;15.00;78.50;101905.16;5115138;28;19923;-74
2021/07/27 00:53:02;;;;;;;;;;;;;;;15.10;77.88;101904.63;5115592;28;19984;-73
2021/07/27 00:55:29;;;;;;;;;;;;;;;15.00;78.11;101910.41;5115334;28;19931;-73
2021/07/27 00:57:55;;;;;;;;;;;;;;;14.79;79.16;101909.78;5115131;28;20401;-73
2021/07/27 01:00:24;;;;;;;;;;;;;;;14.57;80.34;101914.50;5115379;28;19924;-73
2021/07/27 01:02:51;;;;;;;;;;;;;;;14.69;79.68;101916.44;5115061;28;20381;-73
2021/07/27 01:05:18;;;;;;;;;;;;;;;14.71;79.64;101919.84;5115286;28;19931;-74
2021/07/27 01:07:44;;;;;;;;;;;;;;;14.66;79.75;101910.53;5114671;28;19942;-73
2021/07/27 01:10:12;;;;;;;;;;;;;;;14.78;79.09;101909.88;5115180;28;19924;-74
2021/07/27 01:12:39;;;;;;;;;;;;;;;14.61;79.89;101912.56;5114880;28;19923;-73
2021/07/27 01:15:06;;;;;;;;;;;;;;;14.68;79.48;101914.78;5115162;28;19928;-73
2021/07/27 01:17:34;;;;;;;;;;;;;;;14.67;79.41;101915.72;5114865;28;19931;-74
2021/07/27 01:20:06;;;;;;;;;;;;;;;14.67;79.41;101917.47;5114703;28;20505;-73
2021/07/27 01:39:07;;;;;;;;;;;;;;;14.78;78.63;101933.47;5114576;28;19931;-73
2021/07/27 01:44:26;;;;;;;;;;;;;;;14.43;80.51;101925.66;5088881;28;19928;-73
2021/07/27 01:46:53;;;;;;;;;;;;;;;14.37;80.74;101926.00;5114458;28;20018;-73
2021/07/27 01:49:19;;;;;;;;;;;;;;;14.52;79.88;101925.19;5114587;28;19924;-73
2021/07/27 01:51:46;;;;;;;;;;;;;;;14.48;80.11;101918.41;5113925;28;19932;-73
2021/07/27 01:54:16;;;;;;;;;;;;;;;14.65;79.07;101921.97;5114051;28;19924;-73
2021/07/27 01:56:43;;;;;;;;;;;;;;;14.61;79.48;101923.88;5113789;28;19924;-74
2021/07/27 01:59:10;;;;;;;;;;;;;;;14.67;79.41;101914.84;5114230;28;19931;-73
2021/07/27 02:01:36;;;;;;;;;;;;;;;14.52;79.91;101916.50;5113487;28;19928;-73
2021/07/27 02:04:04;;;;;;;;;;;;;;;14.52;79.81;101913.88;5114019;28;20402;-74
2021/07/27 02:06:30;;;;;;;;;;;;;;;14.57;79.64;101922.38;5113861;28;19946;-74
2021/07/27 02:09:01;;;;;;;;;;;;;;;14.46;80.10;101922.88;5114137;28;19924;-73
2021/07/27 02:11:37;;;;;;;;;;;;;;;14.39;80.07;101924.16;5113465;28;19924;-73
2021/07/27 02:14:04;;;;;;;;;;;;;;;14.47;79.62;101927.22;5114366;28;19949;-73
2021/07/27 02:16:31;;;;;;;;;;;;;;;14.34;80.05;101921.78;5113556;28;19930;-74
2021/07/27 02:18:57;;;;;;;;;;;;;;;14.43;80.03;101919.59;5113880;28;19974;-73
2021/07/27 02:21:24;;;;;;;;;;;;;;;14.28;80.22;101918.63;5113626;28;19930;-73
2021/07/27 02:23:50;;;;;;;;;;;;;;;14.28;80.20;101911.63;5113823;28;19927;-73
2021/07/27 02:26:17;;;;;;;;;;;;;;;14.21;80.46;101917.28;5113869;28;19923;-73
2021/07/27 02:28:45;;;;;;;;;;;;;;;14.22;80.74;101924.19;5113522;28;19923;-74
2021/07/27 02:31:16;;;;;;;;;;;;;;;14.51;79.54;101920.03;5113650;28;19931;-73
2021/07/27 02:33:43;;;;;;;;;;;;;;;14.72;78.68;101931.16;5113322;28;19930;-73
2021/07/27 02:36:10;;;;;;;;;;;;;;;14.28;80.41;101926.47;5113669;28;19923;-74
2021/07/27 02:38:36;;;;;;;;;;;;;;;14.52;79.52;101934.84;5113609;28;19927;-74
2021/07/27 02:41:03;;;;;;;;;;;;;;;14.12;81.07;101934.28;5113478;28;19931;-74
2021/07/27 02:43:29;;;;;;;;;;;;;;;14.20;81.52;101932.09;5113034;28;20422;-74
2021/07/27 02:45:57;;;;;;;;;;;;;;;14.16;81.81;101935.81;5113360;28;19930;-73
2021/07/27 02:48:24;;;;;;;;;;;;;;;14.20;81.19;101931.25;5113244;28;19923;-73
2021/07/27 02:51:00;;;;;;;;;;;;;;;14.45;80.24;101928.22;5113249;28;20378;-73
2021/07/27 02:53:29;;;;;;;;;;;;;;;14.37;80.73;101920.78;5112845;28;19931;-73
2021/07/27 02:55:57;;;;;;;;;;;;;;;14.43;80.59;101919.59;5113088;28;20449;-73
2021/07/27 02:58:30;;;;;;;;;;;;;;;14.52;79.97;101917.34;5113350;28;19924;-74
2021/07/27 03:00:58;;;;;;;;;;;;;;;14.67;79.38;101920.09;5113161;28;19932;-73
2021/07/27 03:03:25;;;;;;;;;;;;;;;14.81;78.46;101926.28;5112888;28;19924;-73
2021/07/27 03:05:55;;;;;;;;;;;;;;;14.95;77.81;101922.06;5113080;28;20263;-73
2021/07/27 03:08:23;;;;;;;;;;;;;;;15.02;78.19;101928.66;5113439;28;19923;-73
2021/07/27 03:10:49;;;;;;;;;;;;;;;14.97;79.06;101912.34;5112879;28;19924;-73
2021/07/27 03:13:16;;;;;;;;;;;;;;;15.12;78.31;101916.72;5112975;28;20298;-73
2021/07/27 03:15:43;;;;;;;;;;;;;;;15.25;76.83;101909.03;5112624;28;19923;-73
2021/07/27 03:18:11;;;;;;;;;;;;;;;15.54;75.57;101904.75;5112918;28;20317;-73
2021/07/27 03:20:37;;;;;;;;;;;;;;;15.74;75.03;101901.00;5112968;28;20048;-73
2021/07/27 03:23:04;;;;;;;;;;;;;;;15.65;75.52;101897.09;5113112;28;19974;-74
2021/07/27 03:25:31;;;;;;;;;;;;;;;15.75;75.35;101897.44;5112790;28;19931;-74
2021/07/27 03:27:57;;;;;;;;;;;;;;;15.92;74.57;101893.81;5112710;28;19928;-74
2021/07/27 03:30:24;;;;;;;;;;;;;;;16.07;74.17;101892.91;5112983;28;19923;-73
2021/07/27 03:32:51;;;;;;;;;;;;;;;15.82;75.94;101893.50;5113119;28;19924;-74
2021/07/27 03:35:19;;;;;;;;;;;;;;;16.19;74.53;101885.25;5112718;28;19934;-74
2021/07/27 03:37:45;;;;;;;;;;;;;;;16.25;74.79;101885.69;5112738;28;19939;-73
2021/07/27 03:40:12;;;;;;;;;;;;;;;16.31;73.32;101882.72;5112513;28;19923;-73
2021/07/27 03:42:39;;;;;;;;;;;;;;;16.36;72.25;101876.31;5112485;28;20393;-73
2021/07/27 03:45:06;;;;;;;;;;;;;;;16.41;72.43;101882.97;5114306;28;19924;-73
2021/07/27 03:47:33;;;;;;;;;;;;;;;16.35;73.37;101890.38;5116238;28;19924;-74
2021/07/27 03:49:59;;;;;;;;;;;;;;;16.40;72.68;101886.53;5116710;28;20365;-74
2021/07/27 03:52:27;;;;;;;;;;;;;;;16.43;72.07;101886.34;5116590;28;19931;-74
2021/07/27 03:54:54;;;;;;;;;;;;;;;16.37;72.37;101878.00;5116724;28;19953;-74
2021/07/27 03:57:21;;;;;;;;;;;;;;;16.43;71.98;101880.25;5116686;27;19930;-74
2021/07/27 03:59:47;;;;;;;;;;;;;;;16.53;71.59;101874.31;5116383;28;19924;-73
2021/07/27 04:02:14;;;;;;;;;;;;;;;16.60;71.29;101884.47;5116306;27;19965;-73
2021/07/27 04:04:42;;;;;;;;;;;;;;;16.59;71.78;101882.75;5116453;28;20262;-73
2021/07/27 04:07:08;;;;;;;;;;;;;;;16.61;71.28;101880.88;5116120;28;20446;-73
2021/07/27 04:09:38;;;;;;;;;;;;;;;16.80;70.39;101883.22;5116273;28;19923;-73
2021/07/27 04:12:05;;;;;;;;;;;;;;;16.76;71.28;101877.28;5116655;28;19923;-73
2021/07/27 04:14:31;;;;;;;;;;;;;;;16.89;70.17;101878.22;5115827;28;19924;-73
2021/07/27 04:16:58;;;;;;;;;;;;;;;16.88;69.85;101875.72;5116068;28;20287;-73
2021/07/27 04:19:24;;;;;;;;;;;;;;;16.98;70.15;101875.03;5116237;28;19924;-74
2021/07/27 04:21:51;;;;;;;;;;;;;;;17.01;71.10;101878.41;5116158;28;19930;-73
2021/07/27 04:24:18;;;;;;;;;;;;;;;17.04;69.86;101876.41;5115778;28;20390;-73
2021/07/27 04:26:46;;;;;;;;;;;;;;;17.15;69.79;101880.97;5115922;28;19935;-74
2021/07/27 04:29:13;;;;;;;;;;;;;;;17.23;69.25;101868.16;5115620;28;19931;-73
2021/07/27 04:31:40;;;;;;;;;;;;;;;17.35;68.95;101869.16;5115374;28;19924;-73
2021/07/27 04:34:07;;;;;;;;;;;;;;;17.32;68.81;101872.00;5115680;28;19923;-74
2021/07/27 04:36:34;;;;;;;;;;;;;;;17.42;68.45;101868.66;5115392;28;20370;-73
2021/07/27 04:39:00;;;;;;;;;;;;;;;17.37;68.64;101867.28;5115925;28;19947;-73
2021/07/27 04:41:27;;;;;;;;;;;;;;;17.50;67.90;101854.97;5115292;28;19931;-73
2021/07/27 04:43:55;;;;;;;;;;;;;;;17.67;67.78;101850.38;5115429;28;19924;-74
2021/07/27 04:46:22;;;;;;;;;;;;;;;17.60;68.02;101850.78;5115704;28;19931;-73
2021/07/27 04:48:48;;;;;;;;;;;;;;;17.73;67.48;101857.88;5115080;28;19935;-74
2021/07/27 04:51:15;;;;;;;;;;;;;;;17.62;67.33;101854.16;5115249;28;20301;-74
2021/07/27 04:53:42;;;;;;;;;;;;;;;17.79;67.34;101858.31;5115271;28;19923;-74
2021/07/27 04:56:09;;;;;;;;;;;;;;;17.94;67.04;101856.41;5114917;28;19927;-74
2021/07/27 04:58:35;;;;;;;;;;;;;;;18.08;66.31;101859.88;5115284;28;20023;-74
2021/07/27 05:01:03;;;;;;;;;;;;;;;18.25;65.85;101865.66;5115129;28;19931;-74
2021/07/27 05:03:30;;;;;;;;;;;;;;;18.39;66.54;101867.31;5114732;28;19924;-74
2021/07/27 05:05:57;;;;;;;;;;;;;;;18.63;65.65;101874.47;5115097;27;19923;-73
2021/07/27 05:08:24;;;;;;;;;;;;;;;18.70;64.59;101871.28;5115178;28;19942;-73
2021/07/27 05:10:50;;;;;;;;;;;;;;;18.84;64.40;101872.09;5114699;28;20362;-73
2021/07/27 05:13:17;;;;;;;;;;;;;;;19.01;64.36;101869.09;5114852;28;20378;-74
2021/07/27 05:15:43;;;;;;;;;;;;;;;19.08;64.14;101865.03;5114527;28;19947;-74
2021/07/27 05:18:11;;;;;;;;;;;;;;;19.05;63.29;101874.97;5115293;28;19924;-74
2021/07/27 05:20:38;;;;;;;;;;;;;;;19.18;64.31;101865.19;5115068;28;19924;-74
2021/07/27 05:23:05;;;;;;;;;;;;;;;19.44;63.35;101872.97;5114834;28;19923;-74
2021/07/27 05:25:31;;;;;;;;;;;;;;;19.51;63.39;101867.13;5114433;28;19924;-73
2021/07/27 05:27:58;;;;;;;;;;;;;;;19.73;62.04;101868.16;5114519;28;20388;-72
2021/07/27 05:30:24;;;;;;;;;;;;;;;19.81;62.34;101865.78;5114750;28;19924;-71
2021/07/27 05:32:51;;;;;;;;;;;;;;;20.04;62.47;101868.44;5114430;28;19924;-72
2021/07/27 05:35:19;;;;;;;;;;;;;;;20.10;60.81;101875.91;5114731;28;19924;-72
2021/07/27 05:37:45;;;;;;;;;;;;;;;20.22;61.41;101873.16;5114209;28;19943;-72
2021/07/27 05:40:12;;;;;;;;;;;;;;;20.45;59.85;101874.00;5114326;28;19924;-72
2021/07/27 05:42:39;;;;;;;;;;;;;;;20.61;60.07;101873.63;5114399;28;19977;-72
2021/07/27 05:45:06;;;;;;;;;;;;;;;20.85;58.45;101870.81;5114464;28;19928;-72
2021/07/27 05:47:32;;;;;;;;;;;;;;;20.98;57.96;101870.66;5113676;28;19931;-72
2021/07/27 05:49:59;;;;;;;;;;;;;;;20.88;58.27;101861.78;5114474;28;19932;-74
2021/07/27 05:52:27;;;;;;;;;;;;;;;20.94;58.40;101863.94;5114423;28;19924;-71
2021/07/27 05:54:53;;;;;;;;;;;;;;;21.02;57.62;101863.31;5114066;28;19924;-71
2021/07/27 05:57:20;;;;;;;;;;;;;;;21.15;57.18;101860.50;5114019;28;19931;-72
2021/07/27 05:59:47;;;;;;;;;;;;;;;21.18;56.96;101868.19;5113989;28;19950;-72
2021/07/27 06:02:15;;;;;;;;;;;;;;;21.25;57.02;101854.31;5113717;28;19946;-72
2021/07/27 06:04:42;;;;;;;;;;;;;;;21.29;58.20;101863.66;5113900;28;19924;-71
2021/07/27 06:07:09;;;;;;;;;;;;;;;21.54;57.61;101866.97;5113801;28;19935;-72
2021/07/27 06:09:37;;;;;;;;;;;;;;;21.73;56.20;101863.59;5113178;28;20274;-73
2021/07/27 06:12:04;;;;;;;;;;;;;;;21.67;56.90;101862.31;5114021;28;19924;-72
2021/07/27 06:14:31;;;;;;;;;;;;;;;22.03;55.69;101868.06;5113340;28;19930;-72
2021/07/27 06:16:57;;;;;;;;;;;;;;;22.30;55.28;101874.63;5114058;28;19926;-73
2021/07/27 06:19:25;;;;;;;;;;;;;;;22.42;55.10;101868.25;5113581;28;19924;-72
2021/07/27 06:21:52;;;;;;;;;;;;;;;22.78;54.36;101865.97;5113865;28;19928;-72
2021/07/27 06:24:18;;;;;;;;;;;;;;;22.63;54.13;101865.53;5113555;28;20293;-72
2021/07/27 06:26:46;;;;;;;;;;;;;;;22.53;55.98;101862.88;5113549;28;19927;-73
2021/07/27 06:29:13;;;;;;;;;;;;;;;22.41;54.12;101858.63;5113498;28;19924;-76
2021/07/27 06:31:40;;;;;;;;;;;;;;;22.42;53.72;101848.88;5112946;28;19934;-72
2021/07/27 06:34:06;;;;;;;;;;;;;;;22.38;54.20;101854.44;5113525;28;19924;-73
2021/07/27 06:36:33;;;;;;;;;;;;;;;22.36;54.04;101851.09;5113149;28;19924;-73
2021/07/27 06:38:59;;;;;;;;;;;;;;;22.54;53.56;101847.78;5113196;28;20398;-72
2021/07/27 06:41:26;;;;;;;;;;;;;;;22.50;54.79;101851.69;5113374;28;19924;-72
2021/07/27 06:43:54;;;;;;;;;;;;;;;22.57;52.76;101848.34;5113552;28;19924;-73
2021/07/27 06:46:20;;;;;;;;;;;;;;;22.74;53.12;101852.16;5113360;28;19924;-73
2021/07/27 06:48:47;;;;;;;;;;;;;;;22.86;53.44;101852.84;5112764;28;19924;-74
2021/07/27 06:51:14;;;;;;;;;;;;;;;22.97;52.54;101859.91;5113362;28;20281;-74
2021/07/27 06:53:41;;;;;;;;;;;;;;;22.61;52.78;101849.75;5112865;28;20373;-74
2021/07/27 06:56:08;;;;;;;;;;;;;;;22.58;52.19;101854.47;5113367;28;19924;-73
2021/07/27 06:58:35;;;;;;;;;;;;;;;23.08;51.64;101848.31;5112771;28;19924;-73
2021/07/27 07:01:04;;;;;;;;;;;;;;;23.64;48.83;101847.56;5112935;28;19924;-73
2021/07/27 07:03:31;;;;;;;;;;;;;;;23.90;48.71;101845.13;5112588;28;19924;-74
2021/07/27 07:05:57;;;;;;;;;;;;;;;23.95;49.01;101845.53;5113268;28;19923;-72
2021/07/27 07:08:24;;;;;;;;;;;;;;;23.81;48.37;101854.78;5112863;28;19924;-73
2021/07/27 07:10:57;;;;;;;;;;;;;;;23.68;50.14;101857.72;5112573;28;19923;-74
2021/07/27 07:13:24;;;;;;;;;;;;;;;23.83;49.07;101850.16;5113111;28;19977;-76
2021/07/27 07:15:51;;;;;;;;;;;;;;;24.55;48.36;101858.41;5112891;28;19931;-74
2021/07/27 07:18:19;;;;;;;;;;;;;;;24.80;46.58;101851.53;5113181;28;20318;-74
2021/07/27 07:20:45;;;;;;;;;;;;;;;25.26;44.30;101862.13;5117068;28;20360;-74
2021/07/27 07:23:12;;;;;;;;;;;;;;;25.66;44.61;101853.59;5116972;28;19923;-74
2021/07/27 07:25:42;;;;;;;;;;;;;;;26.48;42.59;101852.16;5116741;28;20301;-74
2021/07/27 07:28:09;;;;;;;;;;;;;;;27.09;40.61;101855.47;5116925;28;20280;-74
2021/07/27 07:30:36;;;;;;;;;;;;;;;27.30;39.31;101855.00;5116665;28;20375;-74
2021/07/27 07:33:02;;;;;;;;;;;;;;;27.38;37.55;101864.00;5117120;28;19924;-74
2021/07/27 07:35:31;;;;;;;;;;;;;;;28.25;37.29;101859.63;5116537;28;19923;-74
2021/07/27 07:37:57;;;;;;;;;;;;;;;28.30;36.69;101867.97;5117071;28;19931;-74
2021/07/27 07:40:24;;;;;;;;;;;;;;;28.49;36.94;101868.56;5116630;28;20399;-75
2021/07/27 07:42:51;;;;;;;;;;;;;;;29.04;34.17;101860.34;5116360;28;19928;-74
2021/07/27 07:45:17;;;;;;;;;;;;;;;28.65;37.03;101869.31;5116535;28;19924;-72
2021/07/27 07:47:44;;;;;;;;;;;;;;;29.08;35.40;101863.53;5116503;28;19931;-72
2021/07/27 07:50:11;;;;;;;;;;;;;;;29.32;36.49;101865.19;5116758;28;19928;-72
2021/07/27 07:52:39;;;;;;;;;;;;;;;29.30;34.98;101867.19;5116487;28;19924;-73
2021/07/27 07:55:07;;;;;;;;;;;;;;;29.99;35.40;101867.03;5116746;28;19931;-72
2021/07/27 07:57:34;;;;;;;;;;;;;;;29.53;35.25;101867.97;5116377;28;19924;-73
2021/07/27 08:00:01;;;;;;;;;;;;;;;29.25;33.80;101865.06;5116493;28;19923;-72
2021/07/27 08:02:27;;;;;;;;;;;;;;;29.84;34.94;101874.25;5115899;28;19978;-74
2021/07/27 08:04:54;;;;;;;;;;;;;;;29.84;33.64;101868.88;5116369;28;19924;-75
2021/07/27 08:07:21;;;;;;;;;;;;;;;28.99;34.99;101867.25;5116184;28;19935;-74
2021/07/27 08:09:49;;;;;;;;;;;;;;;28.95;33.09;101866.75;5115967;28;19924;-73
2021/07/27 08:12:16;;;;;;;;;;;;;;;29.21;33.84;101877.16;5116126;28;20401;-73
2021/07/27 08:14:43;;;;;;;;;;;;;;;30.19;33.33;101864.59;5116016;28;20385;-73
2021/07/27 08:17:10;;;;;;;;;;;;;;;30.35;34.18;101864.41;5116487;28;19947;-73
2021/07/27 08:19:37;;;;;;;;;;;;;;;30.11;32.24;101864.72;5115975;28;19924;-73
2021/07/27 08:22:04;;;;;;;;;;;;;;;30.67;32.72;101874.88;5115919;27;19923;-73
2021/07/27 08:24:32;;;;;;;;;;;;;;;30.68;31.63;101874.69;5115636;28;20278;-72
2021/07/27 08:27:00;;;;;;;;;;;;;;;30.88;31.61;101872.25;5115777;28;20366;-73
2021/07/27 08:29:27;;;;;;;;;;;;;;;30.77;31.11;101867.34;5115558;28;20267;-71
2021/07/27 08:31:53;;;;;;;;;;;;;;;31.39;30.16;101864.03;5115321;28;19939;-72
2021/07/27 08:34:20;;;;;;;;;;;;;;;32.58;28.65;101857.63;5115608;28;19924;-72
2021/07/27 08:36:47;;;;;;;;;;;;;;;32.40;30.30;101860.84;5115573;28;19935;-74
2021/07/27 08:39:13;;;;;;;;;;;;;;;32.47;29.54;101861.72;5115949;28;19924;-72
2021/07/27 08:41:40;;;;;;;;;;;;;;;33.61;27.42;101860.78;5115103;28;19935;-74
2021/07/27 08:44:17;;;;;;;;;;;;;;;32.75;27.36;101853.50;5115492;28;20378;-74
2021/07/27 08:46:43;;;;;;;;;;;;;;;31.75;28.01;101856.78;5115185;28;19924;-74
2021/07/27 08:49:10;;;;;;;;;;;;;;;32.44;27.81;101854.00;5115650;28;20021;-74
2021/07/27 08:51:38;;;;;;;;;;;;;;;31.58;29.74;101859.81;5115387;28;19931;-71
2021/07/27 08:54:08;;;;;;;;;;;;;;;31.83;29.07;101853.94;5115405;28;19924;-71
2021/07/27 08:56:34;;;;;;;;;;;;;;;31.36;28.42;101858.16;5115312;28;19923;-72
2021/07/27 08:59:01;;;;;;;;;;;;;;;31.10;29.46;101854.25;5115278;28;20002;-72
2021/07/27 09:01:30;;;;;;;;;;;;;;;31.38;29.48;101853.47;5114840;28;20417;-72
2021/07/27 09:03:57;;;;;;;;;;;;;;;32.55;27.73;101858.03;5115051;28;19931;-72
2021/07/27 09:06:24;;;;;;;;;;;;;;;32.21;27.12;101854.34;5115616;28;20418;-72
2021/07/27 09:08:50;;;;;;;;;;;;;;;31.89;27.19;101853.16;5115026;28;19931;-72
2021/07/27 09:11:17;;;;;;;;;;;;;;;33.59;26.56;101860.16;5114940;28;19931;-72
2021/07/27 09:13:54;;;;;;;;;;;;;;;32.79;27.20;101855.78;5114543;27;20370;-72
2021/07/27 09:16:21;;;;;;;;;;;;;;;33.49;25.21;101862.44;5114999;28;20293;-73
2021/07/27 09:18:57;;;;;;;;;;;;;;;33.56;24.94;101862.47;5114923;27;19924;-72
2021/07/27 09:21:24;;;;;;;;;;;;;;;33.13;26.11;101866.41;5115094;28;19923;-73
2021/07/27 09:23:50;;;;;;;;;;;;;;;34.66;26.78;101862.47;5114414;28;19924;-74
2021/07/27 09:26:18;;;;;;;;;;;;;;;32.26;26.66;101854.56;5114655;28;20044;-74
2021/07/27 09:28:45;;;;;;;;;;;;;;;31.66;28.24;101861.50;5114647;28;19930;-73
2021/07/27 09:31:11;;;;;;;;;;;;;;;34.47;25.03;101846.13;5114965;28;19923;-73
2021/07/27 09:33:38;;;;;;;;;;;;;;;33.30;25.94;101847.94;5114490;28;19931;-73
2021/07/27 09:36:07;;;;;;;;;;;;;;;34.89;23.76;101845.69;5114531;28;19931;-74
2021/07/27 09:38:34;;;;;;;;;;;;;;;35.05;23.51;101847.00;5114513;28;19990;-75
2021/07/27 09:41:01;;;;;;;;;;;;;;;35.22;23.53;101844.56;5114429;28;19924;-73
2021/07/27 09:43:29;;;;;;;;;;;;;;;34.46;24.26;101841.78;5113277;28;19924;-73
2021/07/27 09:45:56;;;;;;;;;;;;;;;34.44;25.37;101840.34;5114512;28;19931;-74
2021/07/27 09:48:24;;;;;;;;;;;;;;;35.63;23.47;101840.44;5114375;27;20385;-73
2021/07/27 09:50:51;;;;;;;;;;;;;;;35.91;23.88;101840.72;5114223;28;20027;-73
2021/07/27 09:53:19;;;;;;;;;;;;;;;36.24;22.80;101833.25;5114079;28;19924;-73
2021/07/27 09:55:46;;;;;;;;;;;;;;;35.69;22.31;101842.25;5114306;28;20041;-72
2021/07/27 09:58:14;;;;;;;;;;;;;;;35.97;22.85;101834.41;5113955;28;20393;-74
2021/07/27 10:00:45;;;;;;;;;;;;;;;35.78;23.54;101840.06;5113753;28;19924;-75
2021/07/27 10:03:12;;;;;;;;;;;;;;;34.30;25.65;101838.75;5114203;28;19924;-74
2021/07/27 10:05:39;;;;;;;;;;;;;;;33.96;25.75;101836.19;5113982;28;19931;-74
2021/07/27 10:08:05;;;;;;;;;;;;;;;33.76;27.15;101830.88;5113941;28;20514;-74
2021/07/27 10:10:37;;;;;;;;;;;;;;;32.69;26.89;101824.69;5113325;28;19931;-73
2021/07/27 10:13:11;;;;;;;;;;;;;;;32.23;27.17;101821.84;5113667;28;19931;-72
2021/07/27 10:15:42;;;;;;;;;;;;;;;32.77;26.03;101815.56;5113448;28;19923;-72
2021/07/27 10:18:08;;;;;;;;;;;;;;;34.46;24.61;101817.47;5113925;28;19931;-72
2021/07/27 10:20:35;;;;;;;;;;;;;;;33.56;25.02;101809.34;5113658;28;19930;-73
2021/07/27 10:23:12;;;;;;;;;;;;;;;32.58;27.57;101809.13;5113455;28;20301;-73
2021/07/27 10:25:41;;;;;;;;;;;;;;;34.55;24.71;101814.50;5113890;28;19923;-74
2021/07/27 10:28:07;;;;;;;;;;;;;;;35.98;24.12;101808.97;5113998;28;19924;-73
2021/07/27 10:30:35;;;;;;;;;;;;;;;35.41;23.81;101807.56;5113584;28;19931;-73
2021/07/27 10:33:02;;;;;;;;;;;;;;;36.04;22.84;101809.13;5113526;28;19984;-74
2021/07/27 10:35:30;;;;;;;;;;;;;;;36.87;21.79;101807.50;5113212;28;20449;-73
2021/07/27 10:38:07;;;;;;;;;;;;;;;37.97;20.49;101803.13;5113817;28;19966;-74
2021/07/27 10:40:33;;;;;;;;;;;;;;;37.44;21.55;101805.84;5113248;28;20298;-74
2021/07/27 10:43:03;;;;;;;;;;;;;;;37.26;22.30;101806.00;5113471;28;19924;-74
2021/07/27 10:45:29;;;;;;;;;;;;;;;36.88;21.24;101809.97;5112892;28;20014;-73
2021/07/27 10:47:57;;;;;;;;;;;;;;;36.26;22.45;101806.78;5113125;28;19953;-74
2021/07/27 10:50:25;;;;;;;;;;;;;;;36.40;21.90;101795.50;5113088;28;19927;-75
2021/07/27 10:53:00;;;;;;;;;;;;;;;36.14;21.52;101794.00;5113095;28;19931;-75
2021/07/27 10:55:27;;;;;;;;;;;;;;;35.75;23.01;101790.75;5112434;28;19924;-74
2021/07/27 10:57:56;;;;;;;;;;;;;;;36.37;22.66;101787.00;5113095;28;20431;-74
2021/07/27 11:00:31;;;;;;;;;;;;;;;36.03;22.01;101789.34;5112946;28;19924;-74
2021/07/27 11:02:58;;;;;;;;;;;;;;;34.13;24.81;101777.16;5113012;28;20377;-74
2021/07/27 11:05:27;;;;;;;;;;;;;;;37.76;20.54;101780.19;5111986;28;21250;-76
2021/07/27 11:07:53;;;;;;;;;;;;;;;37.18;21.24;101779.25;5113398;28;19934;-74
2021/07/27 11:10:20;;;;;;;;;;;;;;;37.87;20.82;101771.19;5113056;28;20381;-75
2021/07/27 11:12:47;;;;;;;;;;;;;;;37.08;21.01;101777.13;5112795;28;19931;-75
2021/07/27 11:15:14;;;;;;;;;;;;;;;36.58;22.09;101770.25;5113180;28;20301;-74
2021/07/27 11:17:45;;;;;;;;;;;;;;;36.22;22.44;101768.47;5112518;28;20369;-75
2021/07/27 11:20:13;;;;;;;;;;;;;;;36.97;21.47;101759.78;5113215;28;19993;-74
2021/07/27 11:22:42;;;;;;;;;;;;;;;36.59;21.43;101758.34;5113039;28;19924;-74
2021/07/27 11:25:09;;;;;;;;;;;;;;;36.26;21.91;101752.59;5113219;28;19931;-74
2021/07/27 11:27:36;;;;;;;;;;;;;;;35.58;23.02;101743.69;5112877;28;19923;-74
2021/07/27 11:30:03;;;;;;;;;;;;;;;36.96;21.83;101754.56;5113111;28;19923;-75
2021/07/27 11:32:40;;;;;;;;;;;;;;;36.84;21.27;101747.28;5112683;28;20386;-73
2021/07/27 11:35:09;;;;;;;;;;;;;;;36.48;22.05;101748.28;5113214;28;19923;-73
2021/07/27 11:37:35;;;;;;;;;;;;;;;35.29;23.09;101737.97;5112443;28;20385;-73
2021/07/27 11:40:02;;;;;;;;;;;;;;;34.89;23.87;101749.19;5112452;28;19924;-73
2021/07/27 11:42:29;;;;;;;;;;;;;;;36.60;22.16;101741.00;5112544;28;20022;-72
2021/07/27 11:44:56;;;;;;;;;;;;;;;36.03;22.07;101735.19;5112638;28;20367;-73
2021/07/27 11:47:23;;;;;;;;;;;;;;;37.60;20.88;101744.59;5112910;28;19965;-73
2021/07/27 11:49:56;;;;;;;;;;;;;;;37.80;20.76;101735.22;5112563;28;20293;-73
2021/07/27 11:52:28;;;;;;;;;;;;;;;37.14;20.70;101734.66;5112415;28;19932;-73
2021/07/27 11:55:01;;;;;;;;;;;;;;;37.24;21.94;101737.59;5112680;28;19969;-74
2021/07/27 11:57:28;;;;;;;;;;;;;;;37.75;21.75;101733.22;5112792;28;19973;-74
2021/07/27 12:00:05;;;;;;;;;;;;;;;37.09;21.19;101732.66;5112901;28;19966;-74
2021/07/27 12:02:32;;;;;;;;;;;;;;;38.86;20.72;101738.09;5112161;28;20320;-74
2021/07/27 12:05:00;;;;;;;;;;;;;;;38.26;19.93;101726.00;5112250;28;19923;-75
2021/07/27 12:07:29;;;;;;;;;;;;;;;37.35;20.59;101725.88;5115912;28;19947;-74
2021/07/27 12:09:55;;;;;;;;;;;;;;;36.73;21.59;101720.16;5116067;28;20026;-75
2021/07/27 12:12:22;;;;;;;;;;;;;;;40.05;18.04;101720.22;5116423;28;19931;-76
2021/07/27 12:14:48;;;;;;;;;;;;;;;42.04;16.02;101725.09;5116158;28;19924;-75
2021/07/27 12:17:15;;;;;;;;;;;;;;;38.20;20.11;101724.25;5116020;28;19924;-74
2021/07/27 12:19:42;;;;;;;;;;;;;;;37.61;20.43;101716.41;5115357;28;19923;-74
2021/07/27 12:22:09;;;;;;;;;;;;;;;36.05;22.30;101714.13;5115260;28;19980;-73
2021/07/27 12:24:37;;;;;;;;;;;;;;;36.97;21.93;101719.09;5115016;28;20326;-73
2021/07/27 12:27:04;;;;;;;;;;;;;;;39.49;20.25;101724.25;5115246;28;19934;-73
2021/07/27 12:29:30;;;;;;;;;;;;;;;39.23;21.11;101713.06;5114671;28;20378;-73
2021/07/27 12:31:57;;;;;;;;;;;;;;;40.95;18.82;101714.06;5115115;28;19946;-74
2021/07/27 12:34:24;;;;;;;;;;;;;;;39.96;19.22;101713.59;5115335;28;19928;-74
2021/07/27 12:36:50;;;;;;;;;;;;;;;37.86;22.35;101707.88;5115465;28;19923;-74
2021/07/27 12:39:18;;;;;;;;;;;;;;;38.39;21.26;101710.44;5115808;28;20297;-74
2021/07/27 12:41:46;;;;;;;;;;;;;;;40.03;18.70;101705.22;5115325;28;20381;-74
2021/07/27 12:44:13;;;;;;;;;;;;;;;39.68;19.17;101705.66;5115561;28;19930;-74
2021/07/27 12:46:40;;;;;;;;;;;;;;;38.43;20.43;101703.44;5115546;28;19982;-74
2021/07/27 12:49:08;;;;;;;;;;;;;;;39.53;19.13;101696.25;5115435;28;19931;-74
2021/07/27 12:51:35;;;;;;;;;;;;;;;37.51;20.93;101691.78;5115301;28;19923;-74
2021/07/27 12:54:02;;;;;;;;;;;;;;;37.87;21.08;101687.00;5115349;28;20491;-73
2021/07/27 12:56:28;;;;;;;;;;;;;;;39.74;19.26;101691.84;5115101;28;20294;-73